createdAt,value
2022-11-29T00:01:53.165Z,7.43
2022-11-29T00:04:20.877Z,7.34
2022-11-29T00:06:48.441Z,7.38
2022-11-29T00:09:18.509Z,7.31
2022-11-29T00:12:03.951Z,7.35
2022-11-29T00:14:31.528Z,7.49
2022-11-29T00:17:02.260Z,7.38
2022-11-29T00:19:30.738Z,7.31
2022-11-29T00:21:58.480Z,7.32
2022-11-29T00:24:28.662Z,7.31
2022-11-29T00:26:56.188Z,7.27
2022-11-29T00:29:24.765Z,7.32
2022-11-29T00:31:52.328Z,7.33
2022-11-29T00:34:19.995Z,7.29
2022-11-29T00:36:47.709Z,7.33
2022-11-29T00:39:16.302Z,7.39
2022-11-29T00:41:45.638Z,7.34
2022-11-29T00:44:19.711Z,7.37
2022-11-29T00:46:50.589Z,7.33
2022-11-29T00:49:18.867Z,7.35
2022-11-29T00:51:47.049Z,7.39
2022-11-29T00:54:14.636Z,7.42
2022-11-29T00:56:42.647Z,7.33
2022-11-29T00:59:11.615Z,7.48
2022-11-29T01:01:39.331Z,7.38
2022-11-29T01:04:06.898Z,7.35
2022-11-29T01:06:34.411Z,7.34
2022-11-29T01:09:02.010Z,7.29
2022-11-29T01:11:29.819Z,7.30
2022-11-29T01:13:58.924Z,7.33
2022-11-29T01:16:31.134Z,7.37
2022-11-29T01:18:59.005Z,7.21
2022-11-29T01:21:26.660Z,7.18
2022-11-29T01:23:54.744Z,7.14
2022-11-29T01:26:24.115Z,7.14
2022-11-29T01:28:53.600Z,7.10
2022-11-29T01:31:23.466Z,7.21
2022-11-29T01:33:55.672Z,7.29
2022-11-29T01:36:23.507Z,7.33
2022-11-29T01:38:51.241Z,7.46
2022-11-29T01:41:21.274Z,7.43
2022-11-29T01:43:57.572Z,7.40
2022-11-29T01:46:27.498Z,7.36
2022-11-29T01:49:01.627Z,7.31
2022-11-29T01:51:30.319Z,7.28
2022-11-29T01:53:58.187Z,7.32
2022-11-29T01:56:26.585Z,7.30
2022-11-29T01:58:55.642Z,7.34
2022-11-29T02:01:27.421Z,7.29
2022-11-29T02:03:56.734Z,7.29
2022-11-29T02:06:24.989Z,7.33
2022-11-29T02:08:52.712Z,7.45
2022-11-29T02:12:08.535Z,7.39
2022-11-29T02:15:00.438Z,7.45
2022-11-29T02:17:37.989Z,7.42
2022-11-29T02:20:36.839Z,7.38
2022-11-29T02:23:31.819Z,7.43
2022-11-29T02:26:13.070Z,7.62
2022-11-29T02:29:04.063Z,7.59
2022-11-29T02:32:22.510Z,7.45
2022-11-29T02:34:59.366Z,7.37
2022-11-29T02:37:47.544Z,7.58
2022-11-29T02:40:36.270Z,7.45
2022-11-29T02:43:29.314Z,7.47
2022-11-29T02:46:12.982Z,7.46
2022-11-29T02:48:56.599Z,7.46
2022-11-29T02:51:31.830Z,7.43
2022-11-29T02:54:07.333Z,7.36
2022-11-29T02:56:45.144Z,7.50
2022-11-29T02:59:21.497Z,7.48
2022-11-29T03:01:58.831Z,7.35
2022-11-29T03:04:34.795Z,7.40
2022-11-29T03:07:07.255Z,7.44
2022-11-29T03:09:40.994Z,7.58
2022-11-29T03:12:19.540Z,7.49
2022-11-29T03:14:58.295Z,7.60
2022-11-29T03:17:39.118Z,7.50
2022-11-29T03:20:28.450Z,7.43
2022-11-29T03:23:15.202Z,7.36
2022-11-29T03:25:47.052Z,7.37
2022-11-29T03:28:19.823Z,7.33
2022-11-29T03:30:56.685Z,7.38
2022-11-29T03:33:33.610Z,7.40
2022-11-29T03:36:12.577Z,7.33
2022-11-29T03:38:43.158Z,7.35
2022-11-29T03:41:19.357Z,7.35
2022-11-29T03:43:56.553Z,7.42
2022-11-29T03:46:30.259Z,7.45
2022-11-29T03:49:04.628Z,7.53
2022-11-29T03:51:50.317Z,7.41
2022-11-29T03:54:26.820Z,7.57
2022-11-29T03:56:55.208Z,7.50
2022-11-29T03:59:35.007Z,7.47
2022-11-29T04:02:21.087Z,7.45
2022-11-29T04:05:14.466Z,7.46
2022-11-29T04:08:06.353Z,7.48
2022-11-29T04:10:53.695Z,7.51
2022-11-29T04:13:40.401Z,7.56
2022-11-29T04:16:40.085Z,7.64
2022-11-29T04:19:33.977Z,7.71
2022-11-29T04:22:29.980Z,7.72
2022-11-29T04:25:26.499Z,7.74
2022-11-29T04:28:33.808Z,7.71
2022-11-29T04:31:10.072Z,7.75
2022-11-29T04:34:06.296Z,7.50
2022-11-29T04:36:51.125Z,7.46
2022-11-29T04:39:46.975Z,7.43
2022-11-29T04:42:34.983Z,7.49
2022-11-29T04:45:41.417Z,7.45
2022-11-29T04:48:30.759Z,7.43
2022-11-29T04:51:10.565Z,7.30
2022-11-29T04:53:53.825Z,7.43
2022-11-29T04:56:30.153Z,7.45
2022-11-29T04:59:11.156Z,7.46
2022-11-29T05:01:53.837Z,7.38
2022-11-29T05:04:29.286Z,7.33
2022-11-29T05:07:06.804Z,7.45
2022-11-29T05:09:48.219Z,7.35
2022-11-29T05:12:24.656Z,7.23
2022-11-29T05:15:15.495Z,7.27
2022-11-29T05:18:06.431Z,7.28
2022-11-29T05:20:46.424Z,7.32
2022-11-29T05:23:31.081Z,7.38
2022-11-29T05:26:04.617Z,7.44
2022-11-29T05:28:42.554Z,7.38
2022-11-29T05:31:52.464Z,7.41
2022-11-29T05:34:35.225Z,7.51
2022-11-29T05:37:12.919Z,7.55
2022-11-29T05:39:53.813Z,7.63
2022-11-29T05:42:39.451Z,7.64
2022-11-29T05:45:13.715Z,7.65
2022-11-29T05:47:51.158Z,7.58
2022-11-29T05:50:25.091Z,7.58
2022-11-29T05:53:02.086Z,7.59
2022-11-29T05:55:43.046Z,7.56
2022-11-29T05:58:19.700Z,7.67
2022-11-29T06:00:53.547Z,7.64
2022-11-29T06:03:33.881Z,7.61
2022-11-29T06:06:08.052Z,7.53
2022-11-29T06:08:44.250Z,7.57
2022-11-29T06:11:18.158Z,7.50
2022-11-29T06:14:03.263Z,7.60
2022-11-29T06:16:57.229Z,7.49
2022-11-29T06:19:53.121Z,7.51
2022-11-29T06:23:01.857Z,7.56
2022-11-29T06:25:47.057Z,7.53
2022-11-29T06:28:32.514Z,7.60
2022-11-29T06:31:05.953Z,7.50
2022-11-29T06:33:42.471Z,7.66
2022-11-29T06:36:19.730Z,7.62
2022-11-29T06:38:47.879Z,7.72
2022-11-29T06:41:20.334Z,7.72
2022-11-29T06:43:49.969Z,7.66
2022-11-29T06:46:31.378Z,7.75
2022-11-29T06:49:08.274Z,7.60
2022-11-29T06:51:47.430Z,7.60
2022-11-29T06:54:27.039Z,7.58
2022-11-29T06:57:03.762Z,7.73
2022-11-29T06:59:47.545Z,7.68
2022-11-29T07:02:36.925Z,7.73
2022-11-29T07:05:14.865Z,7.44
2022-11-29T07:07:46.177Z,7.45
2022-11-29T07:10:19.099Z,7.54
2022-11-29T07:12:48.305Z,7.66
2022-11-29T07:15:17.748Z,7.76
2022-11-29T07:17:56.377Z,7.75
2022-11-29T07:20:38.156Z,7.80
2022-11-29T07:23:18.391Z,7.80
2022-11-29T07:25:58.817Z,7.95
2022-11-29T07:28:44.570Z,7.90
2022-11-29T07:31:21.437Z,7.94
2022-11-29T07:33:59.077Z,7.89
2022-11-29T07:36:35.018Z,7.80
2022-11-29T07:39:18.576Z,7.69
2022-11-29T07:41:55.153Z,7.57
2022-11-29T07:44:33.135Z,7.61
2022-11-29T07:47:01.996Z,7.58
2022-11-29T07:49:30.048Z,7.64
2022-11-29T07:52:00.124Z,7.91
2022-11-29T07:54:29.193Z,7.99
2022-11-29T07:56:57.124Z,7.99
2022-11-29T07:59:24.701Z,7.86
2022-11-29T08:01:52.693Z,7.88
2022-11-29T08:04:20.398Z,7.92
2022-11-29T08:06:50.557Z,8.05
2022-11-29T08:09:18.719Z,8.12
2022-11-29T08:11:48.802Z,8.12
2022-11-29T08:14:16.442Z,8.02
2022-11-29T08:16:44.374Z,8.07
2022-11-29T08:19:12.067Z,8.17
2022-11-29T08:21:39.856Z,8.16
2022-11-29T08:24:07.547Z,8.37
2022-11-29T08:26:35.289Z,8.31
2022-11-29T08:29:04.456Z,8.43
2022-11-29T08:31:32.203Z,8.26
2022-11-29T08:33:59.882Z,8.28
2022-11-29T08:36:27.492Z,8.34
2022-11-29T08:39:03.445Z,8.31
2022-11-29T08:41:35.255Z,8.40
2022-11-29T08:44:05.629Z,8.39
2022-11-29T08:46:47.568Z,8.55
2022-11-29T08:49:15.249Z,8.47
2022-11-29T08:51:43.413Z,8.52
2022-11-29T08:54:12.860Z,8.45
2022-11-29T08:59:30.299Z,8.63
2022-11-29T09:01:58.106Z,8.68
2022-11-29T09:04:25.762Z,8.68
2022-11-29T09:06:53.379Z,8.74
2022-11-29T09:09:20.896Z,8.79
2022-11-29T09:11:50.532Z,8.68
2022-11-29T09:14:19.876Z,8.80
2022-11-29T09:16:52.125Z,8.82
2022-11-29T09:19:20.110Z,8.83
2022-11-29T09:21:49.390Z,8.86
2022-11-29T09:24:17.071Z,8.71
2022-11-29T09:26:48.382Z,8.68
2022-11-29T09:29:17.323Z,8.82
2022-11-29T09:31:53.535Z,8.87
2022-11-29T09:34:22.708Z,8.95
2022-11-29T09:36:50.369Z,8.92
2022-11-29T09:39:18.028Z,8.99
2022-11-29T09:42:17.843Z,8.98
2022-11-29T09:44:59.337Z,9.09
2022-11-29T09:47:58.126Z,8.94
2022-11-29T09:50:35.358Z,9.01
2022-11-29T09:53:21.884Z,9.05
2022-11-29T09:56:12.288Z,9.11
2022-11-29T09:58:46.093Z,8.74
2022-11-29T10:01:24.078Z,8.67
2022-11-29T10:03:55.439Z,8.72
2022-11-29T10:06:27.819Z,8.88
2022-11-29T10:09:02.552Z,8.94
2022-11-29T10:11:36.886Z,8.67
2022-11-29T10:14:13.321Z,8.80
2022-11-29T10:16:46.534Z,8.93
2022-11-29T10:19:25.201Z,8.87
2022-11-29T10:22:03.969Z,8.66
2022-11-29T10:24:34.457Z,8.92
2022-11-29T10:27:03.693Z,9.02
2022-11-29T10:29:32.156Z,8.86
2022-11-29T10:32:10.086Z,9.11
2022-11-29T10:34:38.276Z,9.17
2022-11-29T10:37:16.882Z,9.34
2022-11-29T10:39:48.164Z,9.32
2022-11-29T10:42:38.701Z,9.37
2022-11-29T10:45:16.684Z,9.38
2022-11-29T10:47:47.409Z,9.33
2022-11-29T10:50:19.923Z,9.37
2022-11-29T10:52:49.289Z,9.29
2022-11-29T10:55:21.312Z,9.52
2022-11-29T10:58:15.443Z,9.40
2022-11-29T11:00:58.545Z,9.55
2022-11-29T11:03:32.034Z,9.48
2022-11-29T11:06:03.598Z,9.38
2022-11-29T11:08:34.857Z,9.50
2022-11-29T11:11:04.533Z,9.57
2022-11-29T11:13:34.609Z,9.50
2022-11-29T11:16:10.663Z,9.49
2022-11-29T11:18:39.114Z,9.60
2022-11-29T11:21:20.182Z,9.51
2022-11-29T11:23:56.527Z,9.24
2022-11-29T11:26:26.791Z,9.09
2022-11-29T11:28:58.995Z,9.15
2022-11-29T11:31:30.010Z,9.33
2022-11-29T11:33:58.015Z,9.19
2022-11-29T11:36:27.472Z,9.20
2022-11-29T11:38:59.132Z,9.10
2022-11-29T11:41:45.428Z,9.04
2022-11-29T11:47:24.079Z,9.18
2022-11-29T11:49:57.131Z,9.27
2022-11-29T11:52:39.845Z,9.22
2022-11-29T11:55:37.641Z,9.33
2022-11-29T11:58:16.715Z,9.09
2022-11-29T12:01:04.797Z,9.01
2022-11-29T12:03:45.172Z,9.14
2022-11-29T12:06:28.309Z,9.25
2022-11-29T12:09:03.407Z,9.19
2022-11-29T12:11:44.282Z,9.37
2022-11-29T12:14:23.742Z,9.37
2022-11-29T12:17:00.675Z,9.34
2022-11-29T12:19:37.120Z,9.45
2022-11-29T12:22:31.421Z,9.43
2022-11-29T12:25:09.522Z,9.37
2022-11-29T12:27:40.600Z,9.34
2022-11-29T12:30:13.782Z,9.46
2022-11-29T12:32:58.908Z,9.22
2022-11-29T12:35:51.592Z,9.24
2022-11-29T12:38:43.445Z,9.23
2022-11-29T12:41:29.260Z,9.25
2022-11-29T12:44:13.401Z,9.12
2022-11-29T12:46:45.003Z,9.19
2022-11-29T12:49:21.867Z,9.21
2022-11-29T12:51:58.868Z,9.25
2022-11-29T12:54:41.118Z,9.22
2022-11-29T12:57:19.092Z,9.35
2022-11-29T13:00:06.969Z,9.16
2022-11-29T13:02:49.184Z,9.32
2022-11-29T13:05:30.175Z,9.24
2022-11-29T13:08:16.509Z,9.25
2022-11-29T13:10:59.062Z,9.34
2022-11-29T13:13:40.293Z,9.22
2022-11-29T13:16:23.940Z,9.35
2022-11-29T13:19:03.684Z,9.30
2022-11-29T13:21:37.094Z,9.49
2022-11-29T13:24:10.597Z,9.57
2022-11-29T13:26:39.869Z,9.63
2022-11-29T13:29:13.656Z,9.77
2022-11-29T13:31:44.740Z,9.67
2022-11-29T13:34:19.796Z,9.47
2022-11-29T13:37:03.002Z,9.51
2022-11-29T13:39:46.533Z,9.43
2022-11-29T13:42:20.839Z,9.18
2022-11-29T13:44:58.240Z,9.18
2022-11-29T13:47:28.394Z,9.11
2022-11-29T13:49:58.919Z,9.21
2022-11-29T13:52:43.150Z,9.03
2022-11-29T13:55:28.703Z,9.20
2022-11-29T13:58:18.736Z,9.22
2022-11-29T14:00:52.029Z,9.22
2022-11-29T14:03:40.508Z,9.23
2022-11-29T14:06:11.102Z,9.26
2022-11-29T14:09:17.139Z,9.20
2022-11-29T14:11:33.908Z,9.21
2022-11-29T14:14:06.207Z,9.28
2022-11-29T14:16:44.849Z,9.32
2022-11-29T14:19:34.095Z,9.24
2022-11-29T14:22:30.303Z,9.26
2022-11-29T14:25:08.151Z,9.42
2022-11-29T14:27:58.751Z,9.58
2022-11-29T14:30:45.538Z,9.57
2022-11-29T14:33:25.238Z,9.64
2022-11-29T14:36:11.390Z,9.64
2022-11-29T14:38:48.288Z,9.46
2022-11-29T14:41:29.075Z,9.26
2022-11-29T14:44:15.474Z,9.24
2022-11-29T14:46:43.602Z,9.17
2022-11-29T14:49:23.034Z,9.23
2022-11-29T14:52:08.572Z,9.10
2022-11-29T14:54:38.303Z,9.14
2022-11-29T14:57:43.271Z,9.06
2022-11-29T15:00:12.732Z,8.90
2022-11-29T15:02:43.784Z,9.03
2022-11-29T15:05:19.960Z,9.02
2022-11-29T15:07:56.239Z,8.91
2022-11-29T15:10:30.222Z,8.85
2022-11-29T15:13:01.487Z,8.80
2022-11-29T15:15:54.160Z,8.90
2022-11-29T15:18:39.984Z,8.91
2022-11-29T15:21:25.643Z,8.87
2022-11-29T15:24:06.571Z,8.95
2022-11-29T15:26:34.513Z,8.89
2022-11-29T15:29:15.724Z,8.64
2022-11-29T15:31:44.643Z,8.54
2022-11-29T15:34:22.096Z,8.51
2022-11-29T15:36:49.787Z,8.48
2022-11-29T15:39:30.789Z,8.42
2022-11-29T15:42:03.138Z,8.46
2022-11-29T15:44:33.659Z,8.51
2022-11-29T15:47:22.182Z,8.45
2022-11-29T15:49:51.707Z,8.51
2022-11-29T15:52:30.999Z,8.64
2022-11-29T15:55:03.919Z,8.51
2022-11-29T15:57:35.472Z,8.51
2022-11-29T16:00:17.140Z,8.57
2022-11-29T16:02:55.198Z,8.65
2022-11-29T16:05:26.112Z,8.65
2022-11-29T16:07:57.063Z,8.72
2022-11-29T16:10:40.755Z,8.79
2022-11-29T16:13:27.494Z,8.62
2022-11-29T16:16:11.728Z,8.73
2022-11-29T16:18:41.694Z,8.55
2022-11-29T16:21:24.506Z,8.68
2022-11-29T16:23:54.745Z,8.68
2022-11-29T16:26:29.564Z,8.66
2022-11-29T16:28:58.570Z,8.66
2022-11-29T16:31:34.094Z,8.62
2022-11-29T16:34:09.212Z,8.62
2022-11-29T16:36:37.851Z,8.59
2022-11-29T16:39:07.908Z,8.53
2022-11-29T16:41:45.599Z,8.40
2022-11-29T16:44:55.376Z,8.57
2022-11-29T16:47:24.685Z,8.53
2022-11-29T16:50:28.626Z,8.62
2022-11-29T16:52:57.313Z,8.64
2022-11-29T16:55:28.178Z,8.70
2022-11-29T16:58:00.856Z,8.66
2022-11-29T17:00:33.226Z,8.70
2022-11-29T17:03:02.525Z,8.73
2022-11-29T17:05:30.336Z,8.81
2022-11-29T17:07:59.544Z,8.63
2022-11-29T17:10:28.788Z,8.60
2022-11-29T17:12:57.830Z,8.74
2022-11-29T17:15:26.802Z,8.65
2022-11-29T17:17:55.696Z,8.67
2022-11-29T17:20:29.889Z,8.61
2022-11-29T17:23:00.267Z,8.61
2022-11-29T17:25:31.482Z,8.55
2022-11-29T17:28:05.271Z,8.54
2022-11-29T17:30:36.085Z,8.58
2022-11-29T17:33:04.234Z,8.56
2022-11-29T17:35:44.994Z,8.48
2022-11-29T17:38:16.279Z,8.42
2022-11-29T17:40:47.744Z,8.42
2022-11-29T17:43:17.050Z,8.42
2022-11-29T17:45:44.999Z,8.52
2022-11-29T17:48:35.908Z,8.40
2022-11-29T17:51:36.035Z,8.34
2022-11-29T17:54:02.999Z,8.36
2022-11-29T17:56:33.820Z,8.40
2022-11-29T17:59:12.789Z,8.34
2022-11-29T18:01:41.794Z,8.37
2022-11-29T18:04:10.437Z,8.26
2022-11-29T18:06:42.659Z,8.23
2022-11-29T18:09:12.176Z,8.19
2022-11-29T18:11:48.302Z,8.11
2022-11-29T18:14:27.631Z,8.07
2022-11-29T18:16:57.617Z,7.91
2022-11-29T18:19:29.657Z,8.01
2022-11-29T18:22:00.169Z,7.97
2022-11-29T18:24:29.348Z,8.00
2022-11-29T18:26:58.847Z,8.03
2022-11-29T18:29:32.697Z,8.10
2022-11-29T18:32:06.675Z,8.17
2022-11-29T18:34:39.841Z,8.09
2022-11-29T18:37:32.853Z,8.15
2022-11-29T18:40:07.209Z,8.21
2022-11-29T18:42:50.034Z,8.25
2022-11-29T18:45:20.000Z,8.31
2022-11-29T18:50:35.587Z,8.26
2022-11-29T18:53:05.470Z,8.27
2022-11-29T18:55:33.749Z,8.38
2022-11-29T18:58:04.599Z,8.48
2022-11-29T19:00:34.972Z,8.53
2022-11-29T19:03:04.167Z,8.46
2022-11-29T19:05:31.893Z,8.54
2022-11-29T19:07:59.894Z,8.53
2022-11-29T19:10:27.709Z,8.44
2022-11-29T19:12:55.742Z,8.41
2022-11-29T19:15:23.309Z,8.39
2022-11-29T19:17:53.762Z,8.38
2022-11-29T19:20:22.367Z,8.38
2022-11-29T19:22:50.116Z,8.35
2022-11-29T19:25:21.882Z,8.23
2022-11-29T19:27:51.898Z,8.23
2022-11-29T19:30:23.245Z,8.22
2022-11-29T19:32:57.907Z,8.31
2022-11-29T19:35:34.164Z,8.40
2022-11-29T19:38:06.678Z,8.46
2022-11-29T19:40:34.544Z,8.41
2022-11-29T19:43:02.220Z,8.42
2022-11-29T19:45:30.504Z,8.47
2022-11-29T19:48:00.212Z,8.40
2022-11-29T19:50:29.241Z,8.40
2022-11-29T19:53:00.173Z,8.52
2022-11-29T19:55:31.055Z,8.51
2022-11-29T19:58:03.983Z,8.36
2022-11-29T20:00:32.427Z,8.44
2022-11-29T20:03:02.593Z,8.44
2022-11-29T20:05:30.442Z,8.42
2022-11-29T20:07:58.555Z,8.40
2022-11-29T20:10:27.777Z,8.46
2022-11-29T20:12:58.998Z,8.45
2022-11-29T20:15:33.519Z,8.49
2022-11-29T20:18:05.076Z,8.50
2022-11-29T20:20:34.708Z,8.46
2022-11-29T20:23:02.575Z,8.39
2022-11-29T20:25:30.487Z,8.38
2022-11-29T20:28:00.488Z,8.36
2022-11-29T20:30:28.716Z,8.43
2022-11-29T20:33:03.603Z,8.42
2022-11-29T20:35:31.769Z,8.47
2022-11-29T20:38:23.262Z,8.46
2022-11-29T20:41:03.123Z,8.52
2022-11-29T20:43:39.850Z,8.52
2022-11-29T20:46:08.388Z,8.52
2022-11-29T20:48:46.551Z,8.56
2022-11-29T20:51:19.250Z,8.47
2022-11-29T20:53:49.016Z,8.50
2022-11-29T20:56:18.365Z,8.43
2022-11-29T20:58:46.596Z,8.32
2022-11-29T21:01:14.948Z,8.31
2022-11-29T21:03:45.146Z,8.34
2022-11-29T21:06:15.874Z,8.40
2022-11-29T21:08:47.055Z,8.40
2022-11-29T21:11:26.093Z,8.41
2022-11-29T21:13:54.293Z,8.34
2022-11-29T21:16:28.760Z,8.35
2022-11-29T21:19:06.753Z,8.38
2022-11-29T21:21:45.796Z,8.32
2022-11-29T21:24:31.261Z,8.36
2022-11-29T21:27:00.967Z,8.24
2022-11-29T21:29:32.315Z,8.20
2022-11-29T21:32:02.128Z,8.27
2022-11-29T21:34:31.297Z,8.22
2022-11-29T21:37:01.799Z,8.28
2022-11-29T21:39:36.351Z,8.19
2022-11-29T21:42:05.470Z,8.32
2022-11-29T21:44:33.927Z,8.26
2022-11-29T21:47:03.361Z,8.25
2022-11-29T21:49:34.970Z,8.27
2022-11-29T21:52:06.159Z,8.31
2022-11-29T21:54:34.046Z,8.24
2022-11-29T21:57:04.439Z,8.27
2022-11-29T21:59:33.326Z,8.29
2022-11-29T22:02:04.879Z,8.33
2022-11-29T22:04:40.067Z,8.33
2022-11-29T22:07:10.813Z,8.16
2022-11-29T22:09:38.904Z,8.12
2022-11-29T22:12:31.841Z,8.09
2022-11-29T22:15:01.859Z,8.03
2022-11-29T22:17:29.465Z,7.92
2022-11-29T22:19:58.584Z,7.93
2022-11-29T22:22:28.315Z,7.87
2022-11-29T22:24:57.432Z,7.85
2022-11-29T22:27:30.682Z,7.90
2022-11-29T22:29:59.781Z,7.98
2022-11-29T22:32:29.783Z,7.96
2022-11-29T22:34:59.059Z,7.93
2022-11-29T22:37:32.280Z,7.94
2022-11-29T22:40:00.404Z,8.05
2022-11-29T22:42:28.073Z,8.13
2022-11-29T22:45:04.400Z,8.11
2022-11-29T22:47:32.701Z,8.19
2022-11-29T22:50:05.836Z,8.23
2022-11-29T22:52:35.132Z,8.15
2022-11-29T22:55:05.116Z,7.97
2022-11-29T22:57:36.327Z,7.96
2022-11-29T23:00:05.482Z,7.94
2022-11-29T23:02:34.727Z,7.95
2022-11-29T23:05:04.580Z,7.89
2022-11-29T23:07:32.561Z,7.92
2022-11-29T23:10:01.905Z,7.86
2022-11-29T23:12:29.536Z,7.93
2022-11-29T23:14:57.808Z,8.05
2022-11-29T23:17:25.856Z,8.05
2022-11-29T23:19:53.756Z,8.06
2022-11-29T23:22:22.990Z,8.04
2022-11-29T23:24:50.688Z,7.98
2022-11-29T23:27:18.400Z,8.00
2022-11-29T23:29:46.032Z,8.00
2022-11-29T23:32:14.000Z,8.03
2022-11-29T23:34:41.568Z,7.90
2022-11-29T23:37:09.557Z,7.90
2022-11-29T23:39:38.581Z,7.86
2022-11-29T23:42:06.453Z,7.90
2022-11-29T23:44:36.341Z,7.95
2022-11-29T23:47:03.962Z,7.90
2022-11-29T23:49:31.615Z,7.86
2022-11-29T23:51:59.450Z,7.89
2022-11-29T23:54:27.123Z,7.89
2022-11-29T23:56:56.078Z,7.75
2022-11-29T23:59:23.718Z,7.69
